createdAt,value
2022-08-25T00:00:27.644Z,95739.22
2022-08-25T00:02:57.764Z,95737.09
2022-08-25T00:05:33.330Z,95731.44
2022-08-25T00:08:06.158Z,95733.63
2022-08-25T00:10:40.009Z,95724.97
2022-08-25T00:13:11.433Z,95729.88
2022-08-25T00:15:41.381Z,95730.72
2022-08-25T00:18:14.792Z,95725.88
2022-08-25T00:20:50.433Z,95731.59
2022-08-25T00:23:20.852Z,95725.97
2022-08-25T00:25:50.845Z,95730.03
2022-08-25T00:28:22.071Z,95725.75
2022-08-25T00:30:52.315Z,95727.13
2022-08-25T00:33:21.873Z,95723.63
2022-08-25T00:35:52.203Z,95716.09
2022-08-25T00:38:22.023Z,95724.75
2022-08-25T00:41:05.861Z,95729.09
2022-08-25T00:43:50.944Z,95721.00
2022-08-25T00:46:25.520Z,95722.91
2022-08-25T00:49:02.146Z,95718.38
2022-08-25T00:51:42.957Z,95723.28
2022-08-25T00:54:20.609Z,95720.03
2022-08-25T00:56:52.505Z,95713.28
2022-08-25T00:59:26.363Z,95712.78
2022-08-25T01:01:57.628Z,95705.47
2022-08-25T01:04:27.934Z,95704.66
2022-08-25T01:06:59.439Z,95706.03
2022-08-25T01:09:32.481Z,95701.19
2022-08-25T01:12:02.469Z,95705.25
2022-08-25T01:14:35.859Z,95700.13
2022-08-25T01:17:17.317Z,95699.34
2022-08-25T01:19:50.602Z,95697.72
2022-08-25T01:22:21.673Z,95694.22
2022-08-25T01:25:01.106Z,95701.50
2022-08-25T01:27:30.767Z,95701.78
2022-08-25T01:30:00.400Z,95694.78
2022-08-25T01:32:30.108Z,95693.97
2022-08-25T01:34:59.681Z,95696.19
2022-08-25T01:37:30.638Z,95691.06
2022-08-25T01:40:00.311Z,95694.84
2022-08-25T01:42:55.598Z,95698.34
2022-08-25T01:45:25.621Z,95695.94
2022-08-25T01:47:58.344Z,95686.50
2022-08-25T01:50:29.389Z,95692.19
2022-08-25T01:53:07.084Z,95692.47
2022-08-25T01:55:52.869Z,95689.75
2022-08-25T01:58:26.726Z,95686.28
2022-08-25T02:01:01.570Z,95696.56
2022-08-25T02:03:32.477Z,95690.91
2022-08-25T02:06:04.310Z,95689.84
2022-08-25T02:08:36.472Z,95690.91
2022-08-25T02:11:06.771Z,95688.81
2022-08-25T02:13:36.293Z,95689.09
2022-08-25T02:16:06.740Z,95678.56
2022-08-25T02:18:36.980Z,95687.75
2022-08-25T02:21:07.041Z,95684.53
2022-08-25T02:23:37.984Z,95685.91
2022-08-25T02:26:07.484Z,95688.88
2022-08-25T02:28:38.111Z,95694.03
2022-08-25T02:31:08.180Z,95694.88
2022-08-25T02:33:37.724Z,95689.75
2022-08-25T02:36:08.490Z,95697.59
2022-08-25T02:38:40.747Z,95691.44
2022-08-25T02:41:14.581Z,95690.91
2022-08-25T02:43:46.722Z,95691.47
2022-08-25T02:46:19.823Z,95681.22
2022-08-25T02:48:51.786Z,95688.81
2022-08-25T02:51:23.555Z,95680.97
2022-08-25T02:53:54.459Z,95684.22
2022-08-25T02:56:25.716Z,95684.78
2022-08-25T02:58:55.702Z,95674.25
2022-08-25T03:01:28.777Z,95678.84
2022-08-25T03:03:59.909Z,95677.53
2022-08-25T03:06:29.862Z,95683.22
2022-08-25T03:09:01.410Z,95679.19
2022-08-25T03:11:40.470Z,95682.16
2022-08-25T03:14:11.134Z,95674.63
2022-08-25T03:16:42.891Z,95673.28
2022-08-25T03:19:16.709Z,95674.63
2022-08-25T03:21:46.783Z,95671.94
2022-08-25T03:24:17.732Z,95673.56
2022-08-25T03:26:55.941Z,95673.56
2022-08-25T03:29:29.600Z,95677.59
2022-08-25T03:32:00.660Z,95669.50
2022-08-25T03:34:31.572Z,95670.31
2022-08-25T03:37:01.111Z,95667.06
2022-08-25T03:39:32.070Z,95670.84
2022-08-25T03:42:04.158Z,95664.38
2022-08-25T03:44:33.680Z,95668.97
2022-08-25T03:47:03.317Z,95666.00
2022-08-25T03:49:32.804Z,95660.06
2022-08-25T03:52:04.560Z,95659.00
2022-08-25T03:54:35.377Z,95668.47
2022-08-25T03:57:06.154Z,95662.25
2022-08-25T03:59:38.317Z,95667.13
2022-08-25T04:02:08.580Z,95667.41
2022-08-25T04:04:38.090Z,95676.03
2022-08-25T04:07:08.155Z,95664.41
2022-08-25T04:09:39.736Z,95666.03
2022-08-25T04:12:10.184Z,95666.03
2022-08-25T04:14:39.657Z,95662.25
2022-08-25T04:17:09.520Z,95661.97
2022-08-25T04:19:39.274Z,95663.88
2022-08-25T04:22:08.883Z,95659.28
2022-08-25T04:24:39.967Z,95660.09
2022-08-25T04:27:09.658Z,95661.69
2022-08-25T04:29:39.428Z,95661.69
2022-08-25T04:32:09.101Z,95667.09
2022-08-25T04:34:39.037Z,95669.78
2022-08-25T04:37:09.046Z,95661.69
2022-08-25T04:39:40.050Z,95666.81
2022-08-25T04:42:09.608Z,95662.22
2022-08-25T04:44:39.381Z,95664.66
2022-08-25T04:47:09.686Z,95662.22
2022-08-25T04:49:39.682Z,95660.03
2022-08-25T04:52:32.413Z,95665.97
2022-08-25T04:55:03.533Z,95661.38
2022-08-25T04:57:33.025Z,95666.50
2022-08-25T05:00:02.558Z,95653.81
2022-08-25T05:02:32.762Z,95657.81
2022-08-25T05:05:04.048Z,95665.63
2022-08-25T05:07:33.535Z,95662.66
2022-08-25T05:10:04.924Z,95663.72
2022-08-25T05:12:34.552Z,95662.88
2022-08-25T05:15:26.902Z,95660.16
2022-08-25T05:17:57.561Z,95654.44
2022-08-25T05:20:27.337Z,95658.94
2022-08-25T05:22:56.812Z,95657.53
2022-08-25T05:25:27.653Z,95649.66
2022-08-25T05:27:57.452Z,95651.19
2022-08-25T05:30:26.990Z,95645.41
2022-08-25T05:32:57.206Z,95651.22
2022-08-25T05:35:26.793Z,95654.38
2022-08-25T05:37:57.316Z,95657.78
2022-08-25T05:40:28.420Z,95658.75
2022-08-25T05:42:57.995Z,95661.34
2022-08-25T05:45:27.720Z,95660.44
2022-08-25T05:47:57.997Z,95658.41
2022-08-25T05:50:27.670Z,95660.44
2022-08-25T05:52:57.127Z,95656.25
2022-08-25T05:55:28.044Z,95661.56
2022-08-25T05:57:57.544Z,95651.44
2022-08-25T06:00:27.016Z,95652.38
2022-08-25T06:02:55.529Z,95648.22
2022-08-25T06:05:25.335Z,95649.47
2022-08-25T06:07:54.925Z,95648.47
2022-08-25T06:10:24.663Z,95648.94
2022-08-25T06:12:56.766Z,95643.66
2022-08-25T06:15:28.837Z,95639.16
2022-08-25T06:18:05.380Z,95636.00
2022-08-25T06:20:35.139Z,95638.84
2022-08-25T06:23:04.622Z,95643.25
2022-08-25T06:25:34.269Z,95641.50
2022-08-25T06:28:05.677Z,95636.69
2022-08-25T06:30:35.519Z,95636.00
2022-08-25T06:33:05.353Z,95637.75
2022-08-25T06:35:34.935Z,95637.56
2022-08-25T06:38:05.172Z,95647.69
2022-08-25T06:40:34.896Z,95651.63
2022-08-25T06:43:08.746Z,95643.59
2022-08-25T06:45:38.261Z,95648.28
2022-08-25T06:48:07.937Z,95641.56
2022-08-25T06:50:39.670Z,95636.22
2022-08-25T06:53:09.392Z,95644.16
2022-08-25T06:55:39.330Z,95642.63
2022-08-25T06:58:11.324Z,95641.91
2022-08-25T07:00:41.047Z,95638.19
2022-08-25T07:03:10.572Z,95632.22
2022-08-25T07:05:43.706Z,95636.63
2022-08-25T07:08:13.436Z,95628.22
2022-08-25T07:10:42.904Z,95632.59
2022-08-25T07:13:19.298Z,95632.69
2022-08-25T07:15:48.851Z,95630.00
2022-08-25T07:18:18.389Z,95628.63
2022-08-25T07:20:48.274Z,95625.31
2022-08-25T07:23:18.101Z,95624.75
2022-08-25T07:25:47.881Z,95622.31
2022-08-25T07:28:19.889Z,95623.00
2022-08-25T07:30:52.252Z,95620.78
2022-08-25T07:33:21.800Z,95622.75
2022-08-25T07:35:50.918Z,95616.72
2022-08-25T07:38:21.172Z,95617.38
2022-08-25T07:40:54.702Z,95621.09
2022-08-25T07:43:27.933Z,95620.00
2022-08-25T07:45:57.426Z,95624.03
2022-08-25T07:48:26.955Z,95629.16
2022-08-25T07:51:01.092Z,95620.66
2022-08-25T07:53:32.823Z,95626.28
2022-08-25T07:58:39.216Z,95624.00
2022-08-25T08:01:15.677Z,95633.44
2022-08-25T08:03:50.452Z,95630.72
2022-08-25T08:06:25.350Z,95640.50
2022-08-25T08:08:58.004Z,95637.09
2022-08-25T08:11:33.067Z,95632.72
2022-08-25T08:14:05.159Z,95631.59
2022-08-25T08:16:35.132Z,95628.63
2022-08-25T08:19:05.325Z,95631.25
2022-08-25T08:21:37.789Z,95629.63
2022-08-25T08:24:24.895Z,95629.50
2022-08-25T08:26:59.295Z,95633.94
2022-08-25T08:29:30.404Z,95634.78
2022-08-25T08:32:01.347Z,95623.91
2022-08-25T08:34:31.200Z,95613.69
2022-08-25T08:37:02.478Z,95613.91
2022-08-25T08:39:32.197Z,95611.00
2022-08-25T08:42:24.022Z,95606.50
2022-08-25T08:45:20.446Z,95603.56
2022-08-25T08:48:09.979Z,95600.53
2022-08-25T08:50:57.334Z,95593.13
2022-08-25T08:53:37.127Z,95593.81
2022-08-25T08:56:12.403Z,95587.41
2022-08-25T08:58:50.076Z,95590.75
2022-08-25T09:01:29.614Z,95588.41
2022-08-25T09:04:09.773Z,95593.34
2022-08-25T09:06:44.340Z,95583.69
2022-08-25T09:09:21.097Z,95586.16
2022-08-25T09:12:04.416Z,95588.31
2022-08-25T09:14:47.481Z,95581.25
2022-08-25T09:17:45.356Z,95594.34
2022-08-25T09:20:57.682Z,95597.16
2022-08-25T09:23:47.647Z,95592.50
2022-08-25T09:26:31.007Z,95592.50
2022-08-25T09:29:16.183Z,95600.66
2022-08-25T09:31:48.795Z,95589.66
2022-08-25T09:34:24.267Z,95583.19
2022-08-25T09:36:53.721Z,95586.09
2022-08-25T09:39:23.422Z,95586.84
2022-08-25T09:41:57.339Z,95580.16
2022-08-25T09:44:36.109Z,95573.72
2022-08-25T09:47:14.746Z,95577.59
2022-08-25T09:49:49.132Z,95569.25
2022-08-25T09:52:34.689Z,95567.50
2022-08-25T09:55:34.213Z,95574.06
2022-08-25T09:58:22.233Z,95563.25
2022-08-25T10:01:24.966Z,95565.06
2022-08-25T10:04:02.648Z,95557.06
2022-08-25T10:06:45.705Z,95557.28
2022-08-25T10:09:30.445Z,95553.56
2022-08-25T10:12:04.926Z,95540.13
2022-08-25T10:15:29.607Z,95550.09
2022-08-25T10:18:25.915Z,95547.09
2022-08-25T10:21:18.958Z,95540.56
2022-08-25T10:23:55.913Z,95542.72
2022-08-25T10:26:56.861Z,95542.50
2022-08-25T10:29:54.125Z,95532.44
2022-08-25T10:32:38.224Z,95531.78
2022-08-25T10:35:15.729Z,95536.31
2022-08-25T10:38:05.996Z,95536.00
2022-08-25T10:40:48.723Z,95532.59
2022-08-25T10:43:31.932Z,95529.63
2022-08-25T10:46:16.220Z,95523.03
2022-08-25T10:49:00.021Z,95526.59
2022-08-25T10:51:56.957Z,95515.97
2022-08-25T10:54:45.062Z,95518.88
2022-08-25T10:57:37.525Z,95513.88
2022-08-25T11:00:13.337Z,95512.81
2022-08-25T11:03:19.098Z,95511.66
2022-08-25T11:05:57.117Z,95520.06
2022-08-25T11:08:37.857Z,95513.81
2022-08-25T11:11:14.333Z,95514.72
2022-08-25T11:13:54.260Z,95505.66
2022-08-25T11:16:37.549Z,95507.28
2022-08-25T11:19:18.024Z,95505.75
2022-08-25T11:21:57.249Z,95511.75
2022-08-25T11:24:48.242Z,95497.91
2022-08-25T11:27:32.433Z,95484.47
2022-08-25T11:30:09.634Z,95481.31
2022-08-25T11:32:42.012Z,95484.09
2022-08-25T11:35:15.144Z,95482.53
2022-08-25T11:38:01.944Z,95481.31
2022-08-25T11:40:54.426Z,95478.53
2022-08-25T11:43:48.829Z,95487.69
2022-08-25T11:46:45.527Z,95478.13
2022-08-25T11:49:49.791Z,95475.34
2022-08-25T11:52:53.948Z,95481.28
2022-08-25T11:55:46.633Z,95479.69
2022-08-25T11:58:41.640Z,95483.66
2022-08-25T12:01:47.224Z,95479.59
2022-08-25T12:04:44.730Z,95474.00
2022-08-25T12:07:26.737Z,95468.44
2022-08-25T12:10:20.849Z,95471.22
2022-08-25T12:13:43.834Z,95473.16
2022-08-25T12:16:44.461Z,95479.00
2022-08-25T12:19:49.627Z,95468.56
2022-08-25T12:22:55.203Z,95466.44
2022-08-25T12:25:47.209Z,95458.78
2022-08-25T12:28:43.303Z,95460.97
2022-08-25T12:31:37.928Z,95460.56
2022-08-25T12:34:36.399Z,95459.44
2022-08-25T12:37:14.708Z,95456.00
2022-08-25T12:40:01.325Z,95467.81
2022-08-25T12:42:36.801Z,95457.63
2022-08-25T12:45:37.177Z,95458.69
2022-08-25T12:48:57.010Z,95455.13
2022-08-25T12:51:30.138Z,95460.44
2022-08-25T12:54:19.045Z,95459.97
2022-08-25T12:56:58.640Z,95454.16
2022-08-25T12:59:39.186Z,95451.69
2022-08-25T13:02:39.785Z,95454.63
2022-08-25T13:06:09.259Z,95446.81
2022-08-25T13:10:00.957Z,95452.09
2022-08-25T13:12:41.086Z,95441.22
2022-08-25T13:15:17.996Z,95442.19
2022-08-25T13:17:47.488Z,95440.25
2022-08-25T13:20:25.405Z,95433.97
2022-08-25T13:23:06.521Z,95440.38
2022-08-25T13:25:49.332Z,95434.91
2022-08-25T13:28:30.476Z,95435.06
2022-08-25T13:31:08.020Z,95423.19
2022-08-25T13:33:38.489Z,95428.72
2022-08-25T13:36:35.014Z,95429.72
2022-08-25T13:39:16.008Z,95426.31
2022-08-25T13:41:55.488Z,95424.78
2022-08-25T13:44:29.125Z,95422.78
2022-08-25T13:47:33.581Z,95424.34
2022-08-25T13:50:22.854Z,95418.44
2022-08-25T13:52:59.444Z,95423.13
2022-08-25T13:55:38.291Z,95414.53
2022-08-25T13:58:39.217Z,95405.97
2022-08-25T14:01:47.141Z,95413.56
2022-08-25T14:04:32.472Z,95398.81
2022-08-25T14:07:33.713Z,95402.56
2022-08-25T14:10:09.802Z,95402.88
2022-08-25T14:12:46.198Z,95406.44
2022-08-25T14:15:33.408Z,95405.97
2022-08-25T14:18:09.542Z,95408.31
2022-08-25T14:20:50.345Z,95401.06
2022-08-25T14:23:24.132Z,95398.78
2022-08-25T14:25:56.631Z,95395.72
2022-08-25T14:28:30.280Z,95400.06
2022-08-25T14:31:06.607Z,95394.09
2022-08-25T14:33:44.601Z,95399.44
2022-08-25T14:36:20.950Z,95396.94
2022-08-25T14:38:54.864Z,95401.44
2022-08-25T14:41:26.490Z,95400.50
2022-08-25T14:43:55.954Z,95400.44
2022-08-25T14:46:32.407Z,95403.31
2022-08-25T14:49:06.470Z,95384.19
2022-08-25T14:51:37.085Z,95383.06
2022-08-25T14:54:12.309Z,95381.13
2022-08-25T14:56:42.991Z,95383.31
2022-08-25T14:59:13.380Z,95375.50
2022-08-25T15:01:44.789Z,95381.78
2022-08-25T15:04:18.582Z,95379.59
2022-08-25T15:06:56.814Z,95380.91
2022-08-25T15:09:33.321Z,95376.94
2022-08-25T15:12:03.533Z,95377.69
2022-08-25T15:14:34.316Z,95376.19
2022-08-25T15:17:05.225Z,95379.75
2022-08-25T15:19:43.422Z,95374.50
2022-08-25T15:22:15.264Z,95374.25
2022-08-25T15:24:44.733Z,95364.19
2022-08-25T15:27:15.142Z,95374.22
2022-08-25T15:29:44.668Z,95371.78
2022-08-25T15:32:15.860Z,95369.03
2022-08-25T15:34:47.514Z,95370.94
2022-08-25T15:37:18.804Z,95358.72
2022-08-25T15:39:49.131Z,95349.31
2022-08-25T15:42:19.345Z,95358.69
2022-08-25T15:44:53.470Z,95351.34
2022-08-25T15:47:25.134Z,95353.84
2022-08-25T15:50:06.761Z,95351.34
2022-08-25T15:52:46.510Z,95352.72
2022-08-25T15:55:19.863Z,95354.84
2022-08-25T15:57:50.247Z,95347.50
2022-08-25T16:00:21.639Z,95357.59
2022-08-25T16:02:52.807Z,95350.72
2022-08-25T16:05:25.972Z,95348.50
2022-08-25T16:07:56.006Z,95356.75
2022-08-25T16:10:26.617Z,95342.59
2022-08-25T16:12:56.583Z,95346.31
2022-08-25T16:15:28.854Z,95351.97
2022-08-25T16:18:03.179Z,95348.06
2022-08-25T16:20:37.152Z,95347.69
2022-08-25T16:23:06.886Z,95348.13
2022-08-25T16:25:42.407Z,95351.34
2022-08-25T16:28:18.700Z,95345.81
2022-08-25T16:30:52.604Z,95350.50
2022-08-25T16:33:24.272Z,95352.09
2022-08-25T16:35:55.080Z,95343.75
2022-08-25T16:38:24.593Z,95351.19
2022-08-25T16:40:55.227Z,95355.47
2022-08-25T16:43:25.559Z,95360.97
2022-08-25T16:46:01.939Z,95355.34
2022-08-25T16:48:33.175Z,95356.47
2022-08-25T16:51:07.376Z,95358.84
2022-08-25T16:53:55.204Z,95356.03
2022-08-25T16:56:27.275Z,95356.75
2022-08-25T16:59:00.611Z,95349.19
2022-08-25T17:01:34.034Z,95348.69
2022-08-25T17:04:06.364Z,95349.81
2022-08-25T17:06:40.069Z,95355.25
2022-08-25T17:09:13.027Z,95354.00
2022-08-25T17:11:46.809Z,95348.00
2022-08-25T17:14:19.852Z,95342.00
2022-08-25T17:16:51.209Z,95339.94
2022-08-25T17:19:23.618Z,95346.59
2022-08-25T17:21:54.547Z,95343.75
2022-08-25T17:24:29.386Z,95341.63
2022-08-25T17:27:02.536Z,95345.50
2022-08-25T17:29:32.906Z,95337.53
2022-08-25T17:32:02.588Z,95339.38
2022-08-25T17:34:35.607Z,95343.63
2022-08-25T17:37:05.638Z,95342.00
2022-08-25T17:39:35.159Z,95352.16
2022-08-25T17:42:06.212Z,95357.56
2022-08-25T17:44:37.466Z,95347.56
2022-08-25T17:47:07.299Z,95347.09
2022-08-25T17:49:38.654Z,95352.88
2022-08-25T17:52:08.819Z,95349.63
2022-08-25T17:54:38.365Z,95355.50
2022-08-25T17:57:07.955Z,95363.66
2022-08-25T17:59:38.717Z,95358.78
2022-08-25T18:02:10.487Z,95356.69
2022-08-25T18:04:41.934Z,95351.84
2022-08-25T18:07:11.502Z,95358.38
2022-08-25T18:09:41.314Z,95354.69
2022-08-25T18:12:10.996Z,95360.09
2022-08-25T18:14:41.471Z,95364.25
2022-08-25T18:17:15.693Z,95367.19
2022-08-25T18:19:52.983Z,95366.16
2022-08-25T18:22:22.543Z,95367.13
2022-08-25T18:24:52.458Z,95374.00
2022-08-25T18:27:22.407Z,95371.75
2022-08-25T18:29:53.822Z,95375.03
2022-08-25T18:32:26.049Z,95375.50
2022-08-25T18:34:57.123Z,95378.97
2022-08-25T18:37:44.752Z,95380.28
2022-08-25T18:40:24.637Z,95375.88
2022-08-25T18:42:57.524Z,95380.53
2022-08-25T18:45:32.906Z,95387.09
2022-08-25T18:48:03.806Z,95383.56
2022-08-25T18:50:39.536Z,95388.88
2022-08-25T18:53:10.634Z,95380.97
2022-08-25T18:55:43.250Z,95384.38
2022-08-25T18:58:14.282Z,95384.66
2022-08-25T19:00:45.683Z,95384.28
2022-08-25T19:03:20.186Z,95385.34
2022-08-25T19:05:57.259Z,95384.94
2022-08-25T19:08:27.359Z,95385.63
2022-08-25T19:10:56.946Z,95390.69
2022-08-25T19:13:26.640Z,95387.94
2022-08-25T19:15:56.378Z,95394.59
2022-08-25T19:18:29.025Z,95386.38
2022-08-25T19:23:29.555Z,95384.97
2022-08-25T19:25:59.357Z,95389.75
2022-08-25T19:28:29.174Z,95393.97
2022-08-25T19:30:58.906Z,95389.59
2022-08-25T19:33:42.589Z,95386.16
2022-08-25T19:36:18.382Z,95392.72
2022-08-25T19:38:53.349Z,95391.56
2022-08-25T19:41:23.581Z,95388.44
2022-08-25T19:43:56.695Z,95395.22
2022-08-25T19:46:33.320Z,95394.84
2022-08-25T19:49:08.098Z,95397.63
2022-08-25T19:51:44.599Z,95398.16
2022-08-25T19:54:18.195Z,95398.69
2022-08-25T19:56:55.037Z,95401.19
2022-08-25T19:59:42.391Z,95397.38
2022-08-25T20:02:24.969Z,95400.63
2022-08-25T20:04:59.462Z,95406.28
2022-08-25T20:07:32.606Z,95401.69
2022-08-25T20:10:03.768Z,95398.00
2022-08-25T20:12:35.468Z,95402.53
2022-08-25T20:15:06.902Z,95401.91
2022-08-25T20:17:36.658Z,95407.53
2022-08-25T20:20:15.665Z,95412.41
2022-08-25T20:22:47.224Z,95402.00
2022-08-25T20:25:22.977Z,95401.03
2022-08-25T20:27:56.776Z,95400.41
2022-08-25T20:30:30.716Z,95397.88
2022-08-25T20:33:00.732Z,95406.25
2022-08-25T20:35:30.988Z,95403.72
2022-08-25T20:38:02.098Z,95416.06
2022-08-25T20:40:32.498Z,95401.34
2022-08-25T20:43:03.292Z,95408.56
2022-08-25T20:45:33.408Z,95409.53
2022-08-25T20:48:03.183Z,95418.41
2022-08-25T20:50:34.626Z,95413.44
2022-08-25T20:53:05.746Z,95420.19
2022-08-25T20:55:43.736Z,95416.81
2022-08-25T20:58:14.256Z,95411.84
2022-08-25T21:00:45.005Z,95413.16
2022-08-25T21:03:14.690Z,95405.13
2022-08-25T21:05:44.815Z,95409.94
2022-08-25T21:08:16.683Z,95405.13
2022-08-25T21:10:47.791Z,95408.50
2022-08-25T21:13:17.337Z,95407.53
2022-08-25T21:15:48.910Z,95409.66
2022-08-25T21:18:18.701Z,95399.06
2022-08-25T21:20:48.201Z,95397.47
2022-08-25T21:23:19.658Z,95409.81
2022-08-25T21:25:49.758Z,95407.72
2022-08-25T21:28:20.237Z,95408.84
2022-08-25T21:30:50.786Z,95409.16
2022-08-25T21:33:28.232Z,95416.22
2022-08-25T21:35:57.977Z,95411.56
2022-08-25T21:38:29.376Z,95411.56
2022-08-25T21:41:00.555Z,95409.81
2022-08-25T21:43:30.117Z,95408.53
2022-08-25T21:45:59.756Z,95405.16
2022-08-25T21:48:29.519Z,95403.75
2022-08-25T21:51:07.347Z,95394.59
2022-08-25T21:53:40.904Z,95397.16
2022-08-25T21:56:16.215Z,95398.59
2022-08-25T21:58:49.165Z,95393.00
2022-08-25T22:01:21.225Z,95402.59
2022-08-25T22:03:52.587Z,95398.75
2022-08-25T22:06:23.105Z,95399.38
2022-08-25T22:08:54.640Z,95393.94
2022-08-25T22:11:24.472Z,95394.09
2022-08-25T22:13:55.316Z,95394.75
2022-08-25T22:16:28.038Z,95388.81
2022-08-25T22:18:59.466Z,95400.34
2022-08-25T22:21:32.677Z,95399.88
2022-08-25T22:24:04.240Z,95395.53
2022-08-25T22:26:35.145Z,95395.34
2022-08-25T22:29:05.759Z,95389.72
2022-08-25T22:31:36.945Z,95383.31
2022-08-25T22:34:07.697Z,95389.38
2022-08-25T22:36:39.800Z,95386.53
2022-08-25T22:39:10.839Z,95384.91
2022-08-25T22:41:41.644Z,95383.94
2022-08-25T22:44:30.002Z,95389.72
2022-08-25T22:46:59.579Z,95374.31
2022-08-25T22:49:30.781Z,95378.47
2022-08-25T22:52:00.422Z,95378.78
2022-08-25T22:54:31.353Z,95384.22
2022-08-25T22:57:06.721Z,95378.31
2022-08-25T22:59:36.526Z,95374.31
2022-08-25T23:02:06.542Z,95373.81
2022-08-25T23:04:36.397Z,95379.56
2022-08-25T23:07:11.729Z,95367.75
2022-08-25T23:09:44.041Z,95374.28
2022-08-25T23:12:14.193Z,95368.38
2022-08-25T23:14:44.378Z,95374.94
2022-08-25T23:17:14.139Z,95367.88
2022-08-25T23:19:43.785Z,95367.56
2022-08-25T23:22:16.327Z,95368.50
2022-08-25T23:24:51.874Z,95368.81
2022-08-25T23:27:23.806Z,95363.38
2022-08-25T23:29:53.290Z,95362.59
2022-08-25T23:32:23.190Z,95366.41
2022-08-25T23:34:57.617Z,95366.72
2022-08-25T23:37:27.110Z,95363.53
2022-08-25T23:39:58.749Z,95353.44
2022-08-25T23:42:28.544Z,95349.13
2022-08-25T23:44:58.058Z,95352.78
2022-08-25T23:47:27.659Z,95359.34
2022-08-25T23:49:57.168Z,95354.53
2022-08-25T23:52:27.298Z,95355.19
2022-08-25T23:54:58.884Z,95352.78
2022-08-25T23:57:28.351Z,95353.09
2022-08-25T23:59:58.475Z,95357.56
